createdAt,value
2017-02-05T00:00:10.820Z,994.57
2017-02-05T00:01:11.675Z,994.55
2017-02-05T00:02:10.832Z,994.58
2017-02-05T00:03:10.788Z,994.55
2017-02-05T00:04:10.794Z,994.57
2017-02-05T00:05:10.798Z,994.57
2017-02-05T00:06:10.805Z,994.61
2017-02-05T00:07:10.813Z,994.63
2017-02-05T00:08:10.866Z,994.66
2017-02-05T00:09:10.823Z,994.65
2017-02-05T00:10:10.828Z,994.64
2017-02-05T00:11:10.885Z,994.68
2017-02-05T00:12:10.840Z,994.68
2017-02-05T00:13:10.848Z,994.72
2017-02-05T00:14:10.852Z,994.75
2017-02-05T00:15:10.911Z,994.72
2017-02-05T00:16:10.866Z,994.75
2017-02-05T00:17:10.872Z,994.76
2017-02-05T00:18:10.927Z,994.75
2017-02-05T00:19:10.884Z,994.77
2017-02-05T00:20:10.890Z,994.74
2017-02-05T00:21:10.896Z,994.75
2017-02-05T00:22:10.902Z,994.78
2017-02-05T00:23:10.958Z,994.8
2017-02-05T00:24:10.914Z,994.82
2017-02-05T00:25:10.921Z,994.84
2017-02-05T00:26:10.978Z,994.84
2017-02-05T00:27:10.982Z,994.83
2017-02-05T00:28:10.939Z,994.82
2017-02-05T00:29:10.946Z,994.82
2017-02-05T00:30:10.951Z,994.9
2017-02-05T00:31:10.957Z,994.9
2017-02-05T00:32:11.313Z,994.87
2017-02-05T00:33:10.969Z,994.88
2017-02-05T00:34:11.029Z,994.92
2017-02-05T00:35:11.032Z,994.9
2017-02-05T00:36:11.436Z,994.9
2017-02-05T00:37:10.995Z,994.92
2017-02-05T00:38:10.999Z,994.91
2017-02-05T00:39:11.055Z,994.91
2017-02-05T00:40:11.063Z,994.89
2017-02-05T00:41:11.067Z,994.91
2017-02-05T00:42:11.075Z,994.88
2017-02-05T00:43:12.030Z,994.87
2017-02-05T00:44:11.086Z,994.94
2017-02-05T00:45:11.042Z,994.94
2017-02-05T00:46:11.047Z,994.9
2017-02-05T00:47:11.102Z,994.94
2017-02-05T00:48:11.060Z,994.95
2017-02-05T00:49:11.064Z,994.92
2017-02-05T00:50:11.071Z,994.98
2017-02-05T00:51:11.128Z,994.94
2017-02-05T00:52:11.083Z,994.98
2017-02-05T00:53:11.089Z,995.03
2017-02-05T00:54:12.207Z,994.97
2017-02-05T00:55:11.406Z,995
2017-02-05T00:56:11.159Z,994.98
2017-02-05T00:57:11.114Z,994.99
2017-02-05T00:58:11.120Z,994.97
2017-02-05T00:59:11.124Z,994.97
2017-02-05T01:00:11.181Z,994.98
2017-02-05T01:01:11.187Z,994.98
2017-02-05T01:02:11.194Z,994.98
2017-02-05T01:03:11.198Z,994.98
2017-02-05T01:04:11.154Z,995
2017-02-05T01:05:11.162Z,995.02
2017-02-05T01:06:11.167Z,994.99
2017-02-05T01:07:11.172Z,995.01
2017-02-05T01:08:11.281Z,994.99
2017-02-05T01:09:11.183Z,995.06
2017-02-05T01:10:11.191Z,995
2017-02-05T01:11:11.248Z,995.02
2017-02-05T01:12:11.202Z,995
2017-02-05T01:13:11.208Z,995
2017-02-05T01:14:11.213Z,995
2017-02-05T01:15:11.272Z,995
2017-02-05T01:16:11.278Z,995
2017-02-05T01:17:11.233Z,995.07
2017-02-05T01:18:11.238Z,995.06
2017-02-05T01:19:11.293Z,995.08
2017-02-05T01:20:11.299Z,995.06
2017-02-05T01:21:11.257Z,995.05
2017-02-05T01:22:11.262Z,995.07
2017-02-05T01:23:11.269Z,995.11
2017-02-05T01:24:11.275Z,995.08
2017-02-05T01:25:11.280Z,995.09
2017-02-05T01:26:11.334Z,995.13
2017-02-05T01:27:11.292Z,995.12
2017-02-05T01:28:11.347Z,995.1
2017-02-05T01:29:11.302Z,995.14
2017-02-05T01:30:11.310Z,995.16
2017-02-05T01:31:11.367Z,995.19
2017-02-05T01:32:11.372Z,995.21
2017-02-05T01:33:11.329Z,995.22
2017-02-05T01:34:11.385Z,995.19
2017-02-05T01:35:11.341Z,995.19
2017-02-05T01:36:11.396Z,995.19
2017-02-05T01:37:11.401Z,995.24
2017-02-05T01:38:11.408Z,995.24
2017-02-05T01:39:11.365Z,995.27
2017-02-05T01:40:11.370Z,995.25
2017-02-05T01:41:11.376Z,995.32
2017-02-05T01:42:11.432Z,995.27
2017-02-05T01:43:11.437Z,995.24
2017-02-05T01:44:11.394Z,995.23
2017-02-05T01:45:11.449Z,995.26
2017-02-05T01:46:11.456Z,995.25
2017-02-05T01:47:11.461Z,995.3
2017-02-05T01:48:11.417Z,995.28
2017-02-05T01:49:11.474Z,995.3
2017-02-05T01:50:11.430Z,995.33
2017-02-05T01:51:11.434Z,995.34
2017-02-05T01:52:11.441Z,995.32
2017-02-05T01:53:11.446Z,995.3
2017-02-05T01:54:11.452Z,995.3
2017-02-05T01:55:11.757Z,995.33
2017-02-05T01:56:11.463Z,995.33
2017-02-05T01:57:11.521Z,995.31
2017-02-05T01:58:11.475Z,995.31
2017-02-05T01:59:11.487Z,995.34
2017-02-05T02:00:11.488Z,995.32
2017-02-05T02:01:11.520Z,995.32
2017-02-05T02:02:11.551Z,995.35
2017-02-05T02:03:11.518Z,995.37
2017-02-05T02:04:11.511Z,995.34
2017-02-05T02:05:11.515Z,995.37
2017-02-05T02:06:11.523Z,995.35
2017-02-05T02:07:11.578Z,995.35
2017-02-05T02:08:11.583Z,995.36
2017-02-05T02:09:11.590Z,995.36
2017-02-05T02:10:11.545Z,995.34
2017-02-05T02:11:11.603Z,995.38
2017-02-05T02:12:11.565Z,995.32
2017-02-05T02:13:12.164Z,995.36
2017-02-05T02:14:11.568Z,995.34
2017-02-05T02:15:11.576Z,995.4
2017-02-05T02:16:11.633Z,995.34
2017-02-05T02:17:11.587Z,995.35
2017-02-05T02:18:11.647Z,995.38
2017-02-05T02:19:11.598Z,995.37
2017-02-05T02:20:11.606Z,995.38
2017-02-05T02:21:11.611Z,995.37
2017-02-05T02:22:11.667Z,995.34
2017-02-05T02:23:11.624Z,995.36
2017-02-05T02:24:12.530Z,995.4
2017-02-05T02:25:11.683Z,995.41
2017-02-05T02:26:11.679Z,995.4
2017-02-05T02:27:11.696Z,995.42
2017-02-05T02:28:11.652Z,995.39
2017-02-05T02:29:11.659Z,995.38
2017-02-05T02:30:11.663Z,995.39
2017-02-05T02:31:11.669Z,995.39
2017-02-05T02:32:11.675Z,995.42
2017-02-05T02:33:11.732Z,995.42
2017-02-05T02:34:11.988Z,995.45
2017-02-05T02:35:12.817Z,995.42
2017-02-05T02:36:11.750Z,995.39
2017-02-05T02:37:11.756Z,995.45
2017-02-05T02:38:11.712Z,995.43
2017-02-05T02:39:11.767Z,995.44
2017-02-05T02:40:11.724Z,995.43
2017-02-05T02:41:11.778Z,995.44
2017-02-05T02:42:11.735Z,995.43
2017-02-05T02:43:11.742Z,995.48
2017-02-05T02:44:11.748Z,995.5
2017-02-05T02:45:11.754Z,995.48
2017-02-05T02:46:11.809Z,995.53
2017-02-05T02:47:11.766Z,995.47
2017-02-05T02:48:11.772Z,995.5
2017-02-05T02:49:11.825Z,995.47
2017-02-05T02:50:11.833Z,995.48
2017-02-05T02:51:11.839Z,995.5
2017-02-05T02:52:11.795Z,995.49
2017-02-05T02:53:11.851Z,995.48
2017-02-05T02:54:11.856Z,995.5
2017-02-05T02:55:12.413Z,995.49
2017-02-05T02:56:11.820Z,995.45
2017-02-05T02:57:11.875Z,995.45
2017-02-05T02:58:11.831Z,995.42
2017-02-05T02:59:11.838Z,995.47
2017-02-05T03:00:11.894Z,995.52
2017-02-05T03:01:11.848Z,995.46
2017-02-05T03:02:11.908Z,995.46
2017-02-05T03:03:11.865Z,995.46
2017-02-05T03:04:11.916Z,995.48
2017-02-05T03:05:11.872Z,995.48
2017-02-05T03:06:12.831Z,995.5
2017-02-05T03:07:11.886Z,995.5
2017-02-05T03:08:11.943Z,995.5
2017-02-05T03:09:11.948Z,995.51
2017-02-05T03:10:11.905Z,995.56
2017-02-05T03:11:11.960Z,995.53
2017-02-05T03:12:11.966Z,995.54
2017-02-05T03:13:11.921Z,995.52
2017-02-05T03:14:11.928Z,995.53
2017-02-05T03:15:11.934Z,995.53
2017-02-05T03:16:11.940Z,995.51
2017-02-05T03:17:11.996Z,995.51
2017-02-05T03:18:11.952Z,995.51
2017-02-05T03:19:11.959Z,995.51
2017-02-05T03:20:11.965Z,995.56
2017-02-05T03:21:12.020Z,995.59
2017-02-05T03:22:11.975Z,995.55
2017-02-05T03:23:11.982Z,995.56
2017-02-05T03:24:11.988Z,995.62
2017-02-05T03:25:11.995Z,995.62
2017-02-05T03:26:11.999Z,995.61
2017-02-05T03:27:12.056Z,995.64
2017-02-05T03:28:12.011Z,995.6
2017-02-05T03:29:12.017Z,995.62
2017-02-05T03:30:12.075Z,995.64
2017-02-05T03:31:12.030Z,995.67
2017-02-05T03:32:12.087Z,995.6
2017-02-05T03:33:12.043Z,995.63
2017-02-05T03:34:12.052Z,995.63
2017-02-05T03:35:12.057Z,995.59
2017-02-05T03:36:12.111Z,995.61
2017-02-05T03:37:12.117Z,995.64
2017-02-05T03:38:12.122Z,995.63
2017-02-05T03:39:12.078Z,995.62
2017-02-05T03:40:12.134Z,995.65
2017-02-05T03:41:12.091Z,995.65
2017-02-05T03:42:12.147Z,995.64
2017-02-05T03:43:12.153Z,995.68
2017-02-05T03:44:12.160Z,995.68
2017-02-05T03:45:12.114Z,995.68
2017-02-05T03:46:12.121Z,995.65
2017-02-05T03:47:12.177Z,995.68
2017-02-05T03:48:12.138Z,995.71
2017-02-05T03:49:12.189Z,995.75
2017-02-05T03:50:12.145Z,995.73
2017-02-05T03:51:12.151Z,995.76
2017-02-05T03:52:12.157Z,995.78
2017-02-05T03:53:12.214Z,995.78
2017-02-05T03:54:12.221Z,995.77
2017-02-05T03:55:12.175Z,995.81
2017-02-05T03:56:12.182Z,995.8
2017-02-05T03:57:12.237Z,995.83
2017-02-05T03:58:12.245Z,995.85
2017-02-05T03:59:12.249Z,995.82
2017-02-05T04:00:12.205Z,995.85
2017-02-05T04:01:12.261Z,995.84
2017-02-05T04:02:12.216Z,995.82
2017-02-05T04:03:12.222Z,995.82
2017-02-05T04:04:12.277Z,995.8
2017-02-05T04:05:12.234Z,995.83
2017-02-05T04:06:12.290Z,995.83
2017-02-05T04:07:12.296Z,995.78
2017-02-05T04:08:12.253Z,995.82
2017-02-05T04:09:12.308Z,995.85
2017-02-05T04:10:12.263Z,995.81
2017-02-05T04:11:12.268Z,995.85
2017-02-05T04:12:12.276Z,995.89
2017-02-05T04:13:12.284Z,995.9
2017-02-05T04:14:12.687Z,995.85
2017-02-05T04:15:12.294Z,995.87
2017-02-05T04:16:12.301Z,995.85
2017-02-05T04:17:12.354Z,995.88
2017-02-05T04:18:12.311Z,995.9
2017-02-05T04:19:12.317Z,995.87
2017-02-05T04:20:12.373Z,995.9
2017-02-05T04:21:12.379Z,995.91
2017-02-05T04:22:12.384Z,995.89
2017-02-05T04:23:12.391Z,995.88
2017-02-05T04:24:12.347Z,995.9
2017-02-05T04:25:12.353Z,995.9
2017-02-05T04:26:12.364Z,995.87
2017-02-05T04:27:12.415Z,995.9
2017-02-05T04:28:12.420Z,995.84
2017-02-05T04:29:12.375Z,995.86
2017-02-05T04:30:12.381Z,995.87
2017-02-05T04:31:12.438Z,995.9
2017-02-05T04:32:12.442Z,995.89
2017-02-05T04:33:12.451Z,995.92
2017-02-05T04:34:12.406Z,995.97
2017-02-05T04:35:12.413Z,995.95
2017-02-05T04:36:12.417Z,995.95
2017-02-05T04:37:12.425Z,995.93
2017-02-05T04:38:12.480Z,996.01
2017-02-05T04:39:12.485Z,995.99
2017-02-05T04:40:12.489Z,995.98
2017-02-05T04:41:12.499Z,996
2017-02-05T04:42:12.453Z,996.07
2017-02-05T04:43:12.515Z,996.02
2017-02-05T04:44:12.516Z,995.97
2017-02-05T04:45:12.522Z,996.01
2017-02-05T04:46:12.478Z,996
2017-02-05T04:47:12.538Z,995.99
2017-02-05T04:48:12.491Z,996.02
2017-02-05T04:49:12.497Z,995.99
2017-02-05T04:50:12.501Z,995.98
2017-02-05T04:51:12.507Z,995.97
2017-02-05T04:52:12.514Z,995.98
2017-02-05T04:53:12.569Z,996
2017-02-05T04:54:12.524Z,995.98
2017-02-05T04:55:12.531Z,995.96
2017-02-05T04:56:12.587Z,995.93
2017-02-05T04:57:12.542Z,995.93
2017-02-05T04:58:12.598Z,995.9
2017-02-05T04:59:12.555Z,995.87
2017-02-05T05:00:13.562Z,995.88
2017-02-05T05:01:12.566Z,995.86
2017-02-05T05:02:12.573Z,995.85
2017-02-05T05:03:12.579Z,995.83
2017-02-05T05:04:12.634Z,995.77
2017-02-05T05:05:12.591Z,995.78
2017-02-05T05:06:12.596Z,995.76
2017-02-05T05:07:12.602Z,995.8
2017-02-05T05:08:12.610Z,995.76
2017-02-05T05:09:12.613Z,995.74
2017-02-05T05:10:12.620Z,995.8
2017-02-05T05:11:12.626Z,995.76
2017-02-05T05:12:12.680Z,995.81
2017-02-05T05:13:12.688Z,995.78
2017-02-05T05:14:12.643Z,995.78
2017-02-05T05:15:12.649Z,995.73
2017-02-05T05:16:12.703Z,995.72
2017-02-05T05:17:12.711Z,995.74
2017-02-05T05:18:12.667Z,995.73
2017-02-05T05:19:12.672Z,995.72
2017-02-05T05:20:12.729Z,995.71
2017-02-05T05:21:12.735Z,995.72
2017-02-05T05:22:13.141Z,995.72
2017-02-05T05:23:12.696Z,995.74
2017-02-05T05:24:12.703Z,995.76
2017-02-05T05:25:12.708Z,995.72
2017-02-05T05:26:12.722Z,995.74
2017-02-05T05:27:12.719Z,995.75
2017-02-05T05:28:12.775Z,995.75
2017-02-05T05:29:12.780Z,995.79
2017-02-05T05:30:12.787Z,995.81
2017-02-05T05:31:12.742Z,995.75
2017-02-05T05:32:12.750Z,995.76
2017-02-05T05:33:12.756Z,995.7
2017-02-05T05:34:12.812Z,995.67
2017-02-05T05:35:12.767Z,995.69
2017-02-05T05:36:12.824Z,995.63
2017-02-05T05:37:12.780Z,995.58
2017-02-05T05:38:12.783Z,995.59
2017-02-05T05:39:12.841Z,995.58
2017-02-05T05:40:12.795Z,995.55
2017-02-05T05:41:12.801Z,995.55
2017-02-05T05:42:12.808Z,995.58
2017-02-05T05:43:12.815Z,995.59
2017-02-05T05:44:12.870Z,995.59
2017-02-05T05:45:12.874Z,995.54
2017-02-05T05:46:14.009Z,995.54
2017-02-05T05:47:12.838Z,995.57
2017-02-05T05:48:12.893Z,995.59
2017-02-05T05:49:12.849Z,995.6
2017-02-05T05:50:12.855Z,995.64
2017-02-05T05:51:12.912Z,995.65
2017-02-05T05:52:12.867Z,995.58
2017-02-05T05:53:12.873Z,995.61
2017-02-05T05:54:12.879Z,995.64
2017-02-05T05:55:12.885Z,995.68
2017-02-05T05:56:12.890Z,995.66
2017-02-05T05:57:12.946Z,995.61
2017-02-05T05:58:12.902Z,995.65
2017-02-05T05:59:12.959Z,995.63
2017-02-05T06:00:12.963Z,995.66
2017-02-05T06:01:12.919Z,995.66
2017-02-05T06:02:12.926Z,995.66
2017-02-05T06:03:12.932Z,995.66
2017-02-05T06:04:12.937Z,995.67
2017-02-05T06:05:12.992Z,995.68
2017-02-05T06:06:12.999Z,995.72
2017-02-05T06:07:12.954Z,995.73
2017-02-05T06:08:14.063Z,995.74
2017-02-05T06:09:13.017Z,995.74
2017-02-05T06:10:13.025Z,995.73
2017-02-05T06:11:13.029Z,995.76
2017-02-05T06:12:12.985Z,995.75
2017-02-05T06:13:12.990Z,995.72
2017-02-05T06:14:12.996Z,995.74
2017-02-05T06:15:13.050Z,995.72
2017-02-05T06:16:13.059Z,995.69
2017-02-05T06:17:13.063Z,995.67
2017-02-05T06:18:13.023Z,995.68
2017-02-05T06:19:13.075Z,995.63
2017-02-05T06:20:13.031Z,995.63
2017-02-05T06:21:13.238Z,995.67
2017-02-05T06:22:13.043Z,995.67
2017-02-05T06:23:13.052Z,995.67
2017-02-05T06:24:13.058Z,995.67
2017-02-05T06:25:13.060Z,995.64
2017-02-05T06:26:13.068Z,995.66
2017-02-05T06:27:13.075Z,995.67
2017-02-05T06:28:13.128Z,995.65
2017-02-05T06:29:13.085Z,995.66
2017-02-05T06:30:14.142Z,995.65
2017-02-05T06:31:13.148Z,995.64
2017-02-05T06:32:13.152Z,995.68
2017-02-05T06:33:13.159Z,995.71
2017-02-05T06:34:13.114Z,995.72
2017-02-05T06:35:13.169Z,995.73
2017-02-05T06:36:13.127Z,995.77
2017-02-05T06:37:13.132Z,995.79
2017-02-05T06:38:13.186Z,995.8
2017-02-05T06:39:13.193Z,995.85
2017-02-05T06:40:13.199Z,995.84
2017-02-05T06:41:13.155Z,995.9
2017-02-05T06:42:13.162Z,995.91
2017-02-05T06:43:13.167Z,995.96
2017-02-05T06:44:13.223Z,995.99
2017-02-05T06:45:13.180Z,995.96
2017-02-05T06:46:13.185Z,995.96
2017-02-05T06:47:13.241Z,995.99
2017-02-05T06:48:13.247Z,995.99
2017-02-05T06:49:13.203Z,996.03
2017-02-05T06:50:13.259Z,996.04
2017-02-05T06:51:13.215Z,996.09
2017-02-05T06:52:13.820Z,996.09
2017-02-05T06:53:13.229Z,996.07
2017-02-05T06:54:13.233Z,996.06
2017-02-05T06:55:13.238Z,996.07
2017-02-05T06:56:13.295Z,996.07
2017-02-05T06:57:13.252Z,996.14
2017-02-05T06:58:13.257Z,996.09
2017-02-05T06:59:13.264Z,996.1
2017-02-05T07:00:13.269Z,996.07
2017-02-05T07:01:13.275Z,996.1
2017-02-05T07:02:13.281Z,996.11
2017-02-05T07:03:13.337Z,996.07
2017-02-05T07:04:13.345Z,996.13
2017-02-05T07:05:13.298Z,996.18
2017-02-05T07:06:13.304Z,996.22
2017-02-05T07:07:14.063Z,996.22
2017-02-05T07:08:13.618Z,996.21
2017-02-05T07:09:13.325Z,996.22
2017-02-05T07:10:13.329Z,996.24
2017-02-05T07:11:13.385Z,996.29
2017-02-05T07:12:13.340Z,996.26
2017-02-05T07:13:13.396Z,996.27
2017-02-05T07:14:13.403Z,996.25
2017-02-05T07:15:13.360Z,996.25
2017-02-05T07:16:13.414Z,996.27
2017-02-05T07:17:13.422Z,996.26
2017-02-05T07:18:13.428Z,996.24
2017-02-05T07:19:13.433Z,996.26
2017-02-05T07:20:13.480Z,996.23
2017-02-05T07:21:13.393Z,996.23
2017-02-05T07:22:13.450Z,996.24
2017-02-05T07:23:13.406Z,996.23
2017-02-05T07:24:13.413Z,996.26
2017-02-05T07:25:13.418Z,996.25
2017-02-05T07:26:13.425Z,996.24
2017-02-05T07:27:13.480Z,996.25
2017-02-05T07:28:13.487Z,996.21
2017-02-05T07:29:13.944Z,996.2
2017-02-05T07:30:13.501Z,996.16
2017-02-05T07:31:13.456Z,996.19
2017-02-05T07:32:13.461Z,996.16
2017-02-05T07:33:13.517Z,996.14
2017-02-05T07:34:13.523Z,996.12
2017-02-05T07:35:13.477Z,996.1
2017-02-05T07:36:13.536Z,996.13
2017-02-05T07:37:13.491Z,996.08
2017-02-05T07:38:13.496Z,996.07
2017-02-05T07:39:13.552Z,996.09
2017-02-05T07:40:13.561Z,996.06
2017-02-05T07:41:13.515Z,996.05
2017-02-05T07:42:13.522Z,996.04
2017-02-05T07:43:13.526Z,996.02
2017-02-05T07:44:13.583Z,996.03
2017-02-05T07:45:13.587Z,996.07
2017-02-05T07:46:13.544Z,996.08
2017-02-05T07:47:13.552Z,996.07
2017-02-05T07:48:13.557Z,996.08
2017-02-05T07:49:13.566Z,996.05
2017-02-05T07:50:13.618Z,996.06
2017-02-05T07:51:13.925Z,996.07
2017-02-05T07:52:13.632Z,996.04
2017-02-05T07:53:13.587Z,996.09
2017-02-05T07:54:13.594Z,996.12
2017-02-05T07:55:13.651Z,996.09
2017-02-05T07:56:13.611Z,996.11
2017-02-05T07:57:13.612Z,996.15
2017-02-05T07:58:13.617Z,996.13
2017-02-05T07:59:13.630Z,996.14
2017-02-05T08:00:13.629Z,996.11
2017-02-05T08:01:13.685Z,996.13
2017-02-05T08:02:13.689Z,996.15
2017-02-05T08:03:13.647Z,996.18
2017-02-05T08:04:13.654Z,996.17
2017-02-05T08:05:13.709Z,996.2
2017-02-05T08:06:13.718Z,996.14
2017-02-05T08:07:13.721Z,996.17
2017-02-05T08:08:13.728Z,996.15
2017-02-05T08:09:13.733Z,996.19
2017-02-05T08:10:13.689Z,996.17
2017-02-05T08:11:13.693Z,996.16
2017-02-05T08:12:13.701Z,996.11
2017-02-05T08:13:13.957Z,996.13
2017-02-05T08:14:13.762Z,996.13
2017-02-05T08:15:13.768Z,996.13
2017-02-05T08:16:13.776Z,996.12
2017-02-05T08:17:13.785Z,996.1
2017-02-05T08:18:13.734Z,996.1
2017-02-05T08:19:13.790Z,996.14
2017-02-05T08:20:13.800Z,996.15
2017-02-05T08:21:13.805Z,996.15
2017-02-05T08:22:13.812Z,996.15
2017-02-05T08:23:13.816Z,996.2
2017-02-05T08:24:13.773Z,996.18
2017-02-05T08:25:13.781Z,996.2
2017-02-05T08:26:13.833Z,996.2
2017-02-05T08:27:13.840Z,996.22
2017-02-05T08:28:13.832Z,996.22
2017-02-05T08:29:13.851Z,996.22
2017-02-05T08:30:13.858Z,996.22
2017-02-05T08:31:13.816Z,996.26
2017-02-05T08:32:13.820Z,996.25
2017-02-05T08:33:13.825Z,996.27
2017-02-05T08:34:13.833Z,996.29
2017-02-05T08:35:13.839Z,996.29
2017-02-05T08:36:13.892Z,996.27
2017-02-05T08:37:13.851Z,996.27
2017-02-05T08:38:13.907Z,996.24
2017-02-05T08:39:13.913Z,996.2
2017-02-05T08:40:13.871Z,996.2
2017-02-05T08:41:13.875Z,996.18
2017-02-05T08:42:13.882Z,996.18
2017-02-05T08:43:13.939Z,996.17
2017-02-05T08:44:13.895Z,996.15
2017-02-05T08:45:13.949Z,996.15
2017-02-05T08:46:13.958Z,996.2
2017-02-05T08:47:13.962Z,996.26
2017-02-05T08:48:13.919Z,996.34
2017-02-05T08:49:13.977Z,996.28
2017-02-05T08:50:14.084Z,996.35
2017-02-05T08:51:13.989Z,996.36
2017-02-05T08:52:13.947Z,996.32
2017-02-05T08:53:14.004Z,996.37
2017-02-05T08:54:14.012Z,996.43
2017-02-05T08:55:14.018Z,996.45
2017-02-05T08:56:13.976Z,996.51
2017-02-05T08:57:13.985Z,996.54
2017-02-05T08:58:13.992Z,996.56
2017-02-05T08:59:15.129Z,996.57
2017-02-05T09:00:14.060Z,996.55
2017-02-05T09:01:14.067Z,996.6
2017-02-05T09:02:14.027Z,996.59
2017-02-05T09:03:14.087Z,996.6
2017-02-05T09:04:14.045Z,996.67
2017-02-05T09:05:14.053Z,996.68
2017-02-05T09:06:14.063Z,996.65
2017-02-05T09:07:14.123Z,996.71
2017-02-05T09:08:14.132Z,996.68
2017-02-05T09:09:14.142Z,996.67
2017-02-05T09:10:14.152Z,996.73
2017-02-05T09:11:14.162Z,996.69
2017-02-05T09:12:14.123Z,996.67
2017-02-05T09:13:14.181Z,996.6
2017-02-05T09:14:14.192Z,996.59
2017-02-05T09:15:14.202Z,996.51
2017-02-05T09:16:14.212Z,996.55
2017-02-05T09:17:14.228Z,996.57
2017-02-05T09:18:14.183Z,996.71
2017-02-05T09:19:14.242Z,996.71
2017-02-05T09:20:14.203Z,996.65
2017-02-05T09:21:14.812Z,996.7
2017-02-05T09:22:14.223Z,996.71
2017-02-05T09:23:14.234Z,996.75
2017-02-05T09:24:14.245Z,996.72
2017-02-05T09:25:14.256Z,996.75
2017-02-05T09:26:14.316Z,996.75
2017-02-05T09:27:14.277Z,996.73
2017-02-05T09:28:14.287Z,996.72
2017-02-05T09:29:14.349Z,996.7
2017-02-05T09:30:14.360Z,996.72
2017-02-05T09:31:14.318Z,996.72
2017-02-05T09:32:14.382Z,996.65
2017-02-05T09:33:14.342Z,996.69
2017-02-05T09:34:14.354Z,996.69
2017-02-05T09:35:14.362Z,996.72
2017-02-05T09:36:15.076Z,996.77
2017-02-05T09:37:14.435Z,996.78
2017-02-05T09:38:14.396Z,996.72
2017-02-05T09:39:14.407Z,996.74
2017-02-05T09:40:14.468Z,996.68
2017-02-05T09:41:14.430Z,996.74
2017-02-05T09:42:14.489Z,996.78
2017-02-05T09:43:14.451Z,996.74
2017-02-05T09:44:14.462Z,996.7
2017-02-05T09:45:14.523Z,996.77
2017-02-05T09:46:14.532Z,996.71
2017-02-05T09:47:14.541Z,996.7
2017-02-05T09:48:14.554Z,996.6
2017-02-05T09:49:14.563Z,996.61
2017-02-05T09:50:14.573Z,996.63
2017-02-05T09:51:14.533Z,996.66
2017-02-05T09:52:14.544Z,996.67
2017-02-05T09:53:14.550Z,996.68
2017-02-05T09:54:14.561Z,996.6
2017-02-05T09:55:14.620Z,996.78
2017-02-05T09:56:14.608Z,996.81
2017-02-05T09:57:14.636Z,996.84
2017-02-05T09:58:14.847Z,996.82
2017-02-05T09:59:14.605Z,996.76
2017-02-05T10:00:14.612Z,996.75
2017-02-05T10:01:14.620Z,996.73
2017-02-05T10:02:14.677Z,996.66
2017-02-05T10:03:14.637Z,996.62
2017-02-05T10:04:14.645Z,996.57
2017-02-05T10:05:14.701Z,996.55
2017-02-05T10:06:14.710Z,996.52
2017-02-05T10:07:15.818Z,996.51
2017-02-05T10:08:14.674Z,996.4
2017-02-05T10:09:14.683Z,996.31
2017-02-05T10:10:14.741Z,996.25
2017-02-05T10:11:14.748Z,996.21
2017-02-05T10:12:14.705Z,996.22
2017-02-05T10:13:14.713Z,996.25
2017-02-05T10:14:14.773Z,996.25
2017-02-05T10:15:14.727Z,996.22
2017-02-05T10:16:14.786Z,996.22
2017-02-05T10:17:14.793Z,996.2
2017-02-05T10:18:14.751Z,996.18
2017-02-05T10:19:14.808Z,996.18
2017-02-05T10:20:14.815Z,996.16
2017-02-05T10:21:14.822Z,996.14
2017-02-05T10:22:15.831Z,996.1
2017-02-05T10:23:14.837Z,996.06
2017-02-05T10:24:14.794Z,996.06
2017-02-05T10:25:14.801Z,996.11
2017-02-05T10:26:14.858Z,996.04
2017-02-05T10:27:14.865Z,996.05
2017-02-05T10:28:14.873Z,996
2017-02-05T10:29:14.880Z,996.02
2017-02-05T10:30:14.887Z,996.05
2017-02-05T10:31:14.843Z,996.05
2017-02-05T10:32:14.901Z,996.09
2017-02-05T10:33:14.906Z,996.14
2017-02-05T10:34:14.915Z,996.16
2017-02-05T10:35:14.872Z,996.21
2017-02-05T10:36:14.878Z,996.21
2017-02-05T10:37:14.885Z,996.25
2017-02-05T10:38:14.942Z,996.26
2017-02-05T10:39:14.899Z,996.27
2017-02-05T10:40:14.908Z,996.27
2017-02-05T10:41:14.962Z,996.27
2017-02-05T10:42:14.920Z,996.27
2017-02-05T10:43:14.976Z,996.24
2017-02-05T10:44:15.885Z,996.23
2017-02-05T10:45:14.940Z,996.25
2017-02-05T10:46:15.028Z,996.23
2017-02-05T10:47:14.954Z,996.22
2017-02-05T10:48:14.960Z,996.2
2017-02-05T10:49:14.967Z,996.15
2017-02-05T10:50:14.974Z,996.12
2017-02-05T10:51:15.032Z,996.08
2017-02-05T10:52:14.988Z,996.01
2017-02-05T10:53:15.044Z,995.95
2017-02-05T10:54:15.051Z,995.92
2017-02-05T10:55:15.007Z,995.94
2017-02-05T10:56:15.064Z,995.89
2017-02-05T10:57:15.021Z,995.92
2017-02-05T10:58:15.028Z,995.9
2017-02-05T10:59:15.084Z,995.85
2017-02-05T11:00:15.041Z,995.82
2017-02-05T11:01:15.095Z,995.82
2017-02-05T11:02:15.055Z,995.8
2017-02-05T11:03:15.059Z,995.78
2017-02-05T11:04:15.117Z,995.74
2017-02-05T11:05:15.124Z,995.76
2017-02-05T11:06:15.731Z,995.76
2017-02-05T11:07:15.138Z,995.77
2017-02-05T11:08:15.091Z,995.77
2017-02-05T11:09:15.099Z,995.8
2017-02-05T11:10:15.106Z,995.77
2017-02-05T11:11:15.113Z,995.81
2017-02-05T11:12:15.120Z,995.8
2017-02-05T11:13:15.177Z,995.81
2017-02-05T11:14:15.131Z,995.83
2017-02-05T11:15:15.140Z,995.85
2017-02-05T11:16:15.196Z,995.83
2017-02-05T11:17:15.203Z,995.88
2017-02-05T11:18:15.208Z,995.88
2017-02-05T11:19:15.165Z,995.91
2017-02-05T11:20:15.221Z,995.95
2017-02-05T11:21:15.178Z,995.93
2017-02-05T11:22:15.184Z,996
2017-02-05T11:23:15.242Z,996
2017-02-05T11:24:15.198Z,996.04
2017-02-05T11:25:15.254Z,996.02
2017-02-05T11:26:15.211Z,996.1
2017-02-05T11:27:15.252Z,996.09
2017-02-05T11:28:15.577Z,996.12
2017-02-05T11:29:15.279Z,996.1
2017-02-05T11:30:15.236Z,996.14
2017-02-05T11:31:15.295Z,996.1
2017-02-05T11:32:15.300Z,996.1
2017-02-05T11:33:15.256Z,996.12
2017-02-05T11:34:15.263Z,996.08
2017-02-05T11:35:15.320Z,996.06
2017-02-05T11:36:15.328Z,996.04
2017-02-05T11:37:15.282Z,996.06
2017-02-05T11:38:15.339Z,996.05
2017-02-05T11:39:15.346Z,996.04
2017-02-05T11:40:15.352Z,996.05
2017-02-05T11:41:15.311Z,996.06
2017-02-05T11:42:15.315Z,996.06
2017-02-05T11:43:15.321Z,996.04
2017-02-05T11:44:15.328Z,996.07
2017-02-05T11:45:15.335Z,996.08
2017-02-05T11:46:15.342Z,996.06
2017-02-05T11:47:15.348Z,996.07
2017-02-05T11:48:15.355Z,996.09
2017-02-05T11:49:15.361Z,996.09
2017-02-05T11:50:15.618Z,996.1
2017-02-05T11:51:15.424Z,996.05
2017-02-05T11:52:15.430Z,995.98
2017-02-05T11:53:15.437Z,996.06
2017-02-05T11:54:15.392Z,996.04
2017-02-05T11:55:15.448Z,996.02
2017-02-05T11:56:15.406Z,996
2017-02-05T11:57:15.461Z,995.98
2017-02-05T11:58:15.419Z,996.02
2017-02-05T11:59:15.426Z,996.01
2017-02-05T12:00:15.483Z,995.99
2017-02-05T12:01:15.487Z,996.01
2017-02-05T12:02:15.495Z,995.98
2017-02-05T12:03:15.453Z,995.96
2017-02-05T12:04:15.507Z,995.96
2017-02-05T12:05:15.964Z,996
2017-02-05T12:06:15.471Z,995.99
2017-02-05T12:07:15.476Z,996
2017-02-05T12:08:15.483Z,996.01
2017-02-05T12:09:15.489Z,995.98
2017-02-05T12:10:15.545Z,996
2017-02-05T12:11:15.552Z,996.01
2017-02-05T12:12:15.509Z,996
2017-02-05T12:13:15.564Z,996.03
2017-02-05T12:14:15.521Z,996.06
2017-02-05T12:15:15.579Z,996.07
2017-02-05T12:16:15.584Z,996.06
2017-02-05T12:17:15.592Z,996.01
2017-02-05T12:18:15.550Z,996.02
2017-02-05T12:19:15.604Z,996.03
2017-02-05T12:20:15.610Z,995.98
2017-02-05T12:21:15.566Z,995.96
2017-02-05T12:22:15.622Z,995.99
2017-02-05T12:23:15.579Z,995.95
2017-02-05T12:24:15.586Z,995.96
2017-02-05T12:25:15.592Z,995.97
2017-02-05T12:26:15.599Z,995.91
2017-02-05T12:27:15.914Z,995.91
2017-02-05T12:28:15.665Z,995.9
2017-02-05T12:29:15.671Z,995.85
2017-02-05T12:30:15.625Z,995.9
2017-02-05T12:31:15.686Z,995.91
2017-02-05T12:32:15.641Z,995.95